Carmel, Maine
Current Conditions -  °F | °C
As of 5:53 AM on Monday 20 Oct 2014 (Local Time) from KBGR Reporting Station
Broken Clouds Broken Clouds  
Wind Chill: 33°   Ceiling: 4000
Heat Index: 38°   Visibility: 10mi
Dew Point: 26°   Wind: 6mph
Humidity: 62%   Direction: 280°W
Pressure: 29.87"   Gusts: NA
Location:  44.8°N, 69.05°W
Report Text: KBGR 200953Z 28005KT 10SM BKN040 03/M03 A2987 RMK AO2 SLP115 T00331033
Loading
Personal Weather Stations






























Interactive Weather Map
Tropical Storm Tracking
New forecast layout! Learn more

10-Day Weather Forecast

Advertisements
Track Severe Weather on mobile